createdAt,value
2022-09-28T00:00:39.004Z,802.20
2022-09-28T00:03:06.996Z,798.30
2022-09-28T00:05:35.023Z,799.07
2022-09-28T00:08:04.350Z,794.97
2022-09-28T00:10:32.630Z,797.73
2022-09-28T00:13:01.816Z,800.23
2022-09-28T00:15:29.894Z,802.20
2022-09-28T00:17:57.824Z,797.93
2022-09-28T00:20:25.887Z,799.97
2022-09-28T00:22:53.869Z,795.70
2022-09-28T00:25:24.966Z,796.87
2022-09-28T00:27:52.916Z,793.43
2022-09-28T00:30:20.850Z,791.43
2022-09-28T00:32:48.761Z,789.93
2022-09-28T00:35:16.756Z,784.73
2022-09-28T00:37:44.756Z,787.80
2022-09-28T00:40:12.792Z,780.30
2022-09-28T00:42:42.921Z,782.67
2022-09-28T00:45:11.182Z,782.03
2022-09-28T00:47:43.729Z,783.50
2022-09-28T00:50:17.419Z,788.43
2022-09-28T00:52:48.868Z,791.23
2022-09-28T00:55:21.099Z,793.13
2022-09-28T00:57:55.161Z,782.10
2022-09-28T01:00:23.268Z,792.37
2022-09-28T01:02:51.409Z,784.70
2022-09-28T01:05:19.652Z,782.37
2022-09-28T01:07:48.437Z,783.27
2022-09-28T01:10:16.682Z,788.23
2022-09-28T01:12:44.672Z,782.30
2022-09-28T01:15:15.511Z,779.17
2022-09-28T01:18:00.271Z,786.37
2022-09-28T01:20:58.229Z,782.70
2022-09-28T01:24:19.961Z,785.63
2022-09-28T01:27:07.085Z,778.60
2022-09-28T01:29:51.603Z,781.83
2022-09-28T01:32:27.121Z,778.00
2022-09-28T01:34:59.202Z,782.60
2022-09-28T01:37:32.777Z,781.03
2022-09-28T01:40:02.558Z,775.20
2022-09-28T01:42:34.837Z,771.77
2022-09-28T01:45:08.175Z,776.93
2022-09-28T01:47:39.063Z,777.87
2022-09-28T01:50:11.524Z,773.93
2022-09-28T01:52:46.740Z,779.37
2022-09-28T01:55:20.424Z,781.70
2022-09-28T01:57:51.469Z,782.60
2022-09-28T02:00:20.649Z,783.07
2022-09-28T02:02:55.643Z,781.67
2022-09-28T02:05:32.731Z,785.47
2022-09-28T02:08:04.453Z,779.27
2022-09-28T02:10:36.437Z,787.50
2022-09-28T02:13:09.804Z,794.43
2022-09-28T02:15:42.601Z,792.63
2022-09-28T02:18:11.276Z,786.73
2022-09-28T02:20:41.364Z,795.57
2022-09-28T02:23:10.627Z,796.40
2022-09-28T02:25:42.364Z,803.87
2022-09-28T02:28:13.953Z,798.80
2022-09-28T02:30:43.964Z,795.03
2022-09-28T02:33:15.133Z,793.07
2022-09-28T02:35:43.495Z,784.73
2022-09-28T02:38:12.098Z,779.70
2022-09-28T02:40:41.258Z,781.27
2022-09-28T02:43:15.866Z,782.10
2022-09-28T02:45:52.370Z,785.37
2022-09-28T02:48:43.701Z,791.37
2022-09-28T02:51:22.172Z,789.77
2022-09-28T02:54:02.716Z,799.03
2022-09-28T02:56:42.669Z,808.97
2022-09-28T02:59:19.737Z,796.23
2022-09-28T03:01:55.171Z,806.23
2022-09-28T03:04:31.346Z,808.03
2022-09-28T03:07:02.654Z,804.33
2022-09-28T03:09:34.613Z,806.43
2022-09-28T03:12:07.800Z,813.00
2022-09-28T03:14:37.168Z,806.20
2022-09-28T03:17:05.168Z,805.93
2022-09-28T03:19:36.768Z,802.53
2022-09-28T03:22:05.612Z,793.53
2022-09-28T03:24:33.566Z,796.60
2022-09-28T03:27:02.605Z,795.50
2022-09-28T03:29:33.053Z,794.00
2022-09-28T03:32:06.186Z,795.47
2022-09-28T03:34:35.562Z,790.83
2022-09-28T03:37:03.584Z,791.43
2022-09-28T03:39:32.016Z,791.47
2022-09-28T03:42:01.292Z,792.43
2022-09-28T03:44:31.090Z,792.60
2022-09-28T03:46:59.136Z,795.83
2022-09-28T03:49:28.482Z,790.27
2022-09-28T03:51:56.386Z,797.00
2022-09-28T03:54:25.536Z,800.43
2022-09-28T03:56:53.430Z,799.73
2022-09-28T03:59:21.794Z,800.73
2022-09-28T04:01:50.048Z,797.70
2022-09-28T04:04:18.658Z,793.87
2022-09-28T04:06:48.337Z,799.80
2022-09-28T04:09:17.260Z,797.37
2022-09-28T04:12:03.231Z,799.63
2022-09-28T04:14:33.308Z,796.53
2022-09-28T04:17:01.748Z,797.97
2022-09-28T04:19:32.035Z,802.10
2022-09-28T04:22:10.372Z,796.90
2022-09-28T04:24:39.105Z,805.77
2022-09-28T04:27:24.652Z,802.77
2022-09-28T04:29:52.623Z,787.93
2022-09-28T04:32:21.474Z,792.57
2022-09-28T04:34:49.633Z,793.77
2022-09-28T04:37:19.215Z,794.67
2022-09-28T04:39:48.619Z,793.50
2022-09-28T04:42:19.686Z,792.80
2022-09-28T04:44:50.222Z,794.93
2022-09-28T04:47:18.217Z,795.57
2022-09-28T04:50:04.609Z,789.57
2022-09-28T04:52:38.631Z,795.27
2022-09-28T04:55:09.359Z,796.23
2022-09-28T04:57:37.323Z,798.27
2022-09-28T05:00:06.244Z,797.10
2022-09-28T05:02:36.902Z,799.87
2022-09-28T05:05:23.662Z,799.23
2022-09-28T05:08:30.448Z,811.73
2022-09-28T05:11:00.409Z,798.50
2022-09-28T05:13:28.972Z,796.67
2022-09-28T05:16:04.950Z,797.90
2022-09-28T05:18:34.914Z,799.50
2022-09-28T05:21:04.797Z,792.13
2022-09-28T05:23:34.653Z,791.50
2022-09-28T05:26:02.930Z,794.23
2022-09-28T05:28:33.397Z,796.03
2022-09-28T05:31:39.692Z,789.37
2022-09-28T05:34:22.964Z,792.47
2022-09-28T05:36:50.941Z,784.00
2022-09-28T05:39:20.803Z,791.13
2022-09-28T05:41:48.820Z,786.53
2022-09-28T05:44:17.176Z,785.40
2022-09-28T05:46:45.557Z,781.93
2022-09-28T05:49:14.041Z,785.67
2022-09-28T05:51:41.981Z,787.50
2022-09-28T05:54:10.633Z,787.00
2022-09-28T05:56:43.753Z,783.60
2022-09-28T05:59:12.167Z,782.13
2022-09-28T06:01:40.208Z,789.30
2022-09-28T06:04:10.479Z,795.10
2022-09-28T06:06:38.826Z,788.37
2022-09-28T06:09:06.870Z,792.67
2022-09-28T06:11:49.249Z,792.03
2022-09-28T06:14:40.288Z,788.60
2022-09-28T06:17:08.247Z,800.80
2022-09-28T06:19:36.353Z,809.33
2022-09-28T06:22:27.398Z,802.23
2022-09-28T06:25:05.328Z,803.10
2022-09-28T06:27:35.197Z,806.10
2022-09-28T06:30:05.812Z,804.80
2022-09-28T06:32:35.237Z,811.23
2022-09-28T06:35:03.187Z,807.67
2022-09-28T06:37:32.987Z,809.73
2022-09-28T06:40:02.715Z,807.97
2022-09-28T06:42:31.811Z,808.57
2022-09-28T06:45:31.518Z,800.73
2022-09-28T06:48:19.493Z,798.57
2022-09-28T06:50:48.646Z,796.97
2022-09-28T06:53:28.627Z,788.87
2022-09-28T06:56:02.535Z,790.47
2022-09-28T06:58:32.528Z,784.87
2022-09-28T07:01:03.643Z,776.23
2022-09-28T07:03:41.694Z,772.83
2022-09-28T07:06:48.989Z,761.53
2022-09-28T07:09:55.329Z,760.83
2022-09-28T07:12:49.845Z,762.00
2022-09-28T07:15:32.980Z,754.43
2022-09-28T07:18:04.266Z,752.43
2022-09-28T07:20:45.761Z,757.73
2022-09-28T07:23:19.969Z,748.20
2022-09-28T07:26:09.231Z,748.63
2022-09-28T07:29:14.338Z,740.87
2022-09-28T07:31:44.988Z,742.30
2022-09-28T07:34:43.822Z,744.27
2022-09-28T07:37:23.548Z,741.77
2022-09-28T07:40:09.146Z,746.60
2022-09-28T07:42:39.283Z,749.53
2022-09-28T07:45:10.404Z,742.40
2022-09-28T07:47:39.773Z,743.80
2022-09-28T07:50:24.037Z,749.13
2022-09-28T07:53:01.773Z,744.27
2022-09-28T07:55:42.889Z,751.13
2022-09-28T07:58:32.958Z,748.70
2022-09-28T08:01:20.156Z,750.90
2022-09-28T08:03:48.816Z,745.37
2022-09-28T08:06:18.438Z,746.87
2022-09-28T08:08:47.061Z,745.50
2022-09-28T08:11:19.374Z,747.83
2022-09-28T08:14:10.977Z,749.70
2022-09-28T08:16:53.862Z,743.63
2022-09-28T08:19:58.408Z,752.03
2022-09-28T08:22:32.183Z,749.57
2022-09-28T08:25:02.128Z,749.00
2022-09-28T08:27:30.683Z,738.53
2022-09-28T08:29:58.723Z,735.83
2022-09-28T08:32:41.612Z,736.83
2022-09-28T08:35:28.263Z,735.83
2022-09-28T08:38:20.878Z,718.50
2022-09-28T08:41:06.648Z,712.43
2022-09-28T08:44:10.297Z,718.47
2022-09-28T08:47:00.188Z,726.27
2022-09-28T08:50:04.555Z,719.33
2022-09-28T08:52:56.401Z,701.50
2022-09-28T08:55:40.111Z,707.83
2022-09-28T08:58:12.849Z,714.97
2022-09-28T09:00:47.022Z,705.37
2022-09-28T09:03:17.657Z,705.60
2022-09-28T09:06:00.322Z,701.67
2022-09-28T09:08:55.263Z,697.87
2022-09-28T09:11:34.201Z,687.90
2022-09-28T09:14:28.913Z,659.67
2022-09-28T09:17:04.194Z,646.63
2022-09-28T09:19:54.340Z,648.90
2022-09-28T09:22:40.753Z,657.50
2022-09-28T09:25:19.601Z,653.57
2022-09-28T09:28:02.165Z,638.03
2022-09-28T09:30:36.337Z,635.27
2022-09-28T09:33:25.789Z,635.60
2022-09-28T09:36:28.335Z,640.73
2022-09-28T09:39:33.796Z,634.87
2022-09-28T09:42:36.179Z,626.70
2022-09-28T09:45:46.591Z,631.77
2022-09-28T09:48:37.961Z,620.10
2022-09-28T09:51:14.088Z,623.77
2022-09-28T09:53:46.000Z,624.33
2022-09-28T09:56:17.326Z,617.00
2022-09-28T09:59:22.063Z,619.13
2022-09-28T10:02:22.478Z,613.50
2022-09-28T10:04:59.081Z,615.83
2022-09-28T10:07:43.121Z,613.77
2022-09-28T10:10:14.186Z,621.77
2022-09-28T10:12:49.761Z,623.37
2022-09-28T10:15:23.409Z,617.33
2022-09-28T10:18:12.200Z,621.37
2022-09-28T10:21:14.339Z,627.50
2022-09-28T10:23:57.134Z,608.53
2022-09-28T10:26:33.325Z,610.03
2022-09-28T10:29:04.439Z,614.67
2022-09-28T10:31:38.289Z,592.80
2022-09-28T10:34:14.211Z,595.00
2022-09-28T10:36:48.768Z,594.33
2022-09-28T10:39:25.497Z,590.23
2022-09-28T10:41:53.609Z,588.20
2022-09-28T10:44:25.783Z,593.77
2022-09-28T10:47:07.986Z,584.47
2022-09-28T10:49:46.856Z,597.73
2022-09-28T10:52:41.730Z,595.50
2022-09-28T10:55:33.239Z,600.97
2022-09-28T10:58:02.324Z,604.20
2022-09-28T11:00:44.078Z,602.07
2022-09-28T11:03:25.754Z,590.27
2022-09-28T11:05:59.512Z,596.37
2022-09-28T11:08:31.172Z,585.97
2022-09-28T11:11:07.118Z,580.00
2022-09-28T11:13:47.070Z,575.30
2022-09-28T11:16:28.557Z,576.57
2022-09-28T11:18:58.961Z,593.83
2022-09-28T11:21:32.209Z,592.40
2022-09-28T11:24:07.499Z,590.20
2022-09-28T11:26:44.755Z,587.53
2022-09-28T11:29:37.198Z,589.27
2022-09-28T11:32:25.269Z,592.57
2022-09-28T11:35:34.274Z,571.43
2022-09-28T11:38:26.605Z,577.87
2022-09-28T11:41:36.418Z,564.97
2022-09-28T11:44:23.436Z,555.00
2022-09-28T11:47:21.453Z,557.00
2022-09-28T11:49:56.131Z,563.00
2022-09-28T11:52:29.205Z,567.13
2022-09-28T11:55:02.460Z,554.93
2022-09-28T11:57:40.107Z,559.77
2022-09-28T12:00:15.276Z,564.93
2022-09-28T12:02:50.623Z,563.07
2022-09-28T12:05:29.587Z,569.70
2022-09-28T12:08:01.984Z,549.17
2022-09-28T12:10:53.901Z,551.07
2022-09-28T12:13:35.542Z,571.97
2022-09-28T12:19:02.827Z,554.80
2022-09-28T12:21:38.746Z,553.83
2022-09-28T12:24:14.335Z,563.57
2022-09-28T12:26:48.699Z,567.33
2022-09-28T12:29:21.334Z,559.87
2022-09-28T12:31:57.130Z,566.37
2022-09-28T12:34:25.247Z,570.97
2022-09-28T12:37:06.502Z,563.37
2022-09-28T12:39:57.986Z,561.73
2022-09-28T12:42:41.108Z,568.53
2022-09-28T12:45:18.833Z,569.73
2022-09-28T12:48:09.992Z,562.97
2022-09-28T12:50:48.629Z,562.73
2022-09-28T12:53:35.649Z,562.63
2022-09-28T12:56:06.239Z,560.77
2022-09-28T12:58:45.416Z,559.43
2022-09-28T13:01:25.934Z,566.30
2022-09-28T13:04:31.372Z,569.27
2022-09-28T13:07:04.605Z,566.77
2022-09-28T13:09:39.936Z,574.47
2022-09-28T13:12:44.023Z,584.67
2022-09-28T13:15:44.549Z,583.63
2022-09-28T13:18:18.136Z,588.20
2022-09-28T13:21:19.046Z,603.33
2022-09-28T13:24:32.830Z,607.03
2022-09-28T13:27:05.495Z,602.67
2022-09-28T13:29:34.922Z,602.30
2022-09-28T13:32:04.682Z,594.17
2022-09-28T13:34:35.273Z,601.13
2022-09-28T13:37:20.859Z,607.90
2022-09-28T13:39:52.163Z,613.33
2022-09-28T13:42:51.759Z,614.67
2022-09-28T13:45:50.562Z,616.10
2022-09-28T13:48:21.583Z,614.97
2022-09-28T13:51:16.947Z,620.77
2022-09-28T13:54:03.727Z,623.47
2022-09-28T13:56:38.167Z,628.67
2022-09-28T13:59:19.386Z,625.90
2022-09-28T14:01:55.760Z,619.53
2022-09-28T14:04:26.906Z,621.57
2022-09-28T14:06:57.044Z,609.93
2022-09-28T14:09:45.195Z,619.10
2022-09-28T14:12:46.253Z,621.83
2022-09-28T14:15:40.256Z,614.83
2022-09-28T14:18:15.471Z,616.60
2022-09-28T14:21:04.306Z,615.57
2022-09-28T14:23:55.203Z,606.47
2022-09-28T14:26:41.882Z,601.37
2022-09-28T14:29:21.986Z,612.00
2022-09-28T14:31:50.228Z,607.80
2022-09-28T14:34:27.550Z,603.87
2022-09-28T14:37:14.862Z,602.20
2022-09-28T14:40:03.100Z,568.00
2022-09-28T14:42:31.215Z,571.67
2022-09-28T14:45:38.948Z,588.73
2022-09-28T14:48:17.555Z,587.37
2022-09-28T14:50:47.282Z,590.20
2022-09-28T14:53:21.342Z,576.70
2022-09-28T14:55:51.205Z,570.60
2022-09-28T14:58:25.097Z,576.03
2022-09-28T15:01:00.332Z,587.07
2022-09-28T15:03:33.180Z,581.43
2022-09-28T15:06:02.544Z,581.37
2022-09-28T15:08:40.163Z,578.50
2022-09-28T15:11:14.218Z,585.40
2022-09-28T15:13:44.650Z,567.00
2022-09-28T15:16:15.420Z,576.13
2022-09-28T15:19:03.523Z,577.10
2022-09-28T15:21:36.707Z,577.90
2022-09-28T15:24:27.088Z,575.70
2022-09-28T15:26:56.910Z,572.70
2022-09-28T15:29:30.964Z,578.73
2022-09-28T15:31:59.441Z,575.87
2022-09-28T15:34:48.493Z,580.50
2022-09-28T15:37:19.031Z,595.40
2022-09-28T15:39:48.927Z,586.77
2022-09-28T15:42:18.514Z,582.70
2022-09-28T15:45:15.961Z,580.40
2022-09-28T15:47:45.365Z,586.83
2022-09-28T15:50:22.695Z,596.27
2022-09-28T15:52:56.974Z,592.33
2022-09-28T15:55:29.349Z,575.07
2022-09-28T15:58:09.215Z,576.00
2022-09-28T16:00:37.362Z,585.63
2022-09-28T16:03:21.708Z,587.73
2022-09-28T16:05:51.668Z,587.90
2022-09-28T16:08:24.939Z,594.73
2022-09-28T16:11:08.123Z,591.40
2022-09-28T16:13:36.651Z,594.20
2022-09-28T16:16:04.798Z,602.23
2022-09-28T16:18:41.906Z,598.23
2022-09-28T16:21:27.354Z,597.73
2022-09-28T16:23:57.039Z,582.77
2022-09-28T16:26:32.709Z,596.97
2022-09-28T16:29:02.345Z,589.77
2022-09-28T16:31:33.700Z,585.87
2022-09-28T16:34:11.719Z,588.50
2022-09-28T16:36:43.446Z,584.87
2022-09-28T16:39:12.672Z,588.40
2022-09-28T16:41:44.192Z,592.00
2022-09-28T16:44:22.522Z,610.43
2022-09-28T16:46:53.886Z,617.47
2022-09-28T16:49:22.202Z,638.53
2022-09-28T16:51:50.328Z,651.70
2022-09-28T16:54:37.948Z,674.43
2022-09-28T16:57:09.089Z,686.60
2022-09-28T16:59:40.276Z,702.97
2022-09-28T17:02:42.240Z,703.27
2022-09-28T17:05:08.003Z,719.00
2022-09-28T17:07:36.013Z,720.70
2022-09-28T17:10:04.571Z,720.57
2022-09-28T17:12:34.295Z,731.47
2022-09-28T17:15:02.518Z,724.90
2022-09-28T17:17:31.420Z,735.17
2022-09-28T17:19:59.538Z,740.23
2022-09-28T17:22:27.879Z,760.30
2022-09-28T17:24:56.568Z,759.70
2022-09-28T17:27:24.662Z,767.40
2022-09-28T17:29:54.286Z,771.63
2022-09-28T17:32:22.274Z,784.37
2022-09-28T17:35:00.815Z,786.23
2022-09-28T17:37:36.172Z,785.13
2022-09-28T17:40:14.121Z,787.20
2022-09-28T17:42:42.225Z,775.83
2022-09-28T17:45:11.682Z,782.47
2022-09-28T17:47:42.753Z,794.40
2022-09-28T17:50:22.720Z,784.67
2022-09-28T17:52:52.340Z,790.00
2022-09-28T17:55:30.855Z,797.50
2022-09-28T17:58:01.604Z,788.30
2022-09-28T18:00:31.422Z,795.33
2022-09-28T18:03:02.237Z,789.50
2022-09-28T18:05:30.487Z,783.17
2022-09-28T18:07:59.196Z,790.00
2022-09-28T18:10:27.541Z,796.50
2022-09-28T18:12:55.458Z,805.17
2022-09-28T18:15:23.858Z,802.23
2022-09-28T18:17:53.565Z,808.47
2022-09-28T18:20:21.654Z,802.93
2022-09-28T18:22:49.696Z,802.37
2022-09-28T18:25:18.330Z,805.70
2022-09-28T18:27:46.434Z,810.40
2022-09-28T18:30:14.577Z,802.97
2022-09-28T18:32:42.604Z,802.77
2022-09-28T18:35:12.338Z,805.07
2022-09-28T18:37:46.063Z,804.60
2022-09-28T18:40:15.751Z,805.13
2022-09-28T18:42:46.016Z,798.53
2022-09-28T18:45:17.378Z,796.70
2022-09-28T18:47:48.903Z,795.20
2022-09-28T18:50:26.692Z,801.37
2022-09-28T18:53:11.306Z,793.00
2022-09-28T18:55:40.690Z,798.90
2022-09-28T18:58:10.776Z,801.20
2022-09-28T19:00:40.377Z,791.70
2022-09-28T19:03:11.101Z,794.80
2022-09-28T19:05:44.199Z,790.83
2022-09-28T19:08:13.032Z,795.30
2022-09-28T19:10:42.464Z,794.83
2022-09-28T19:13:10.706Z,794.10
2022-09-28T19:15:39.810Z,789.63
2022-09-28T19:18:08.425Z,786.67
2022-09-28T19:20:37.186Z,784.57
2022-09-28T19:23:07.060Z,776.20
2022-09-28T19:25:36.263Z,786.37
2022-09-28T19:28:05.033Z,775.90
2022-09-28T19:30:33.230Z,776.10
2022-09-28T19:33:02.370Z,785.57
2022-09-28T19:35:32.500Z,779.53
2022-09-28T19:38:00.920Z,783.97
2022-09-28T19:40:31.813Z,782.70
2022-09-28T19:43:00.760Z,787.07
2022-09-28T19:45:29.483Z,785.40
2022-09-28T19:47:59.648Z,779.20
2022-09-28T19:50:27.902Z,779.10
2022-09-28T19:53:01.708Z,783.53
2022-09-28T19:55:36.395Z,784.87
2022-09-28T19:58:05.462Z,778.37
2022-09-28T20:00:33.483Z,785.40
2022-09-28T20:03:03.296Z,782.87
2022-09-28T20:05:32.635Z,789.20
2022-09-28T20:10:35.286Z,785.43
2022-09-28T20:13:04.461Z,793.93
2022-09-28T20:15:32.834Z,784.77
2022-09-28T20:18:01.189Z,785.23
2022-09-28T20:20:32.885Z,786.73
2022-09-28T20:23:02.175Z,786.33
2022-09-28T20:25:33.459Z,788.00
2022-09-28T20:28:02.631Z,785.50
2022-09-28T20:30:37.495Z,780.53
2022-09-28T20:33:09.750Z,780.63
2022-09-28T20:35:42.017Z,784.37
2022-09-28T20:38:10.363Z,782.60
2022-09-28T20:40:41.577Z,779.73
2022-09-28T20:43:10.554Z,787.17
2022-09-28T20:45:39.026Z,782.17
2022-09-28T20:48:08.757Z,777.47
2022-09-28T20:50:36.879Z,780.63
2022-09-28T20:53:10.206Z,779.43
2022-09-28T20:55:41.787Z,779.33
2022-09-28T20:58:09.825Z,779.77
2022-09-28T21:00:42.297Z,776.93
2022-09-28T21:03:10.946Z,781.73
2022-09-28T21:05:39.156Z,776.93
2022-09-28T21:08:07.511Z,782.53
2022-09-28T21:10:35.473Z,777.80
2022-09-28T21:13:05.523Z,771.30
2022-09-28T21:15:33.619Z,775.57
2022-09-28T21:18:01.564Z,774.67
2022-09-28T21:20:29.503Z,769.73
2022-09-28T21:22:57.445Z,772.20
2022-09-28T21:25:25.535Z,771.47
2022-09-28T21:27:53.986Z,772.00
2022-09-28T21:30:23.808Z,774.90
2022-09-28T21:32:52.715Z,768.73
2022-09-28T21:35:20.867Z,774.50
2022-09-28T21:37:49.791Z,775.77
2022-09-28T21:40:18.317Z,780.10
2022-09-28T21:42:46.591Z,772.07
2022-09-28T21:45:14.808Z,771.90
2022-09-28T21:47:47.640Z,771.70
2022-09-28T21:50:15.762Z,762.27
2022-09-28T21:52:43.876Z,774.37
2022-09-28T21:55:11.966Z,773.57
2022-09-28T21:57:40.133Z,772.10
2022-09-28T22:00:10.317Z,775.63
2022-09-28T22:02:38.992Z,770.93
2022-09-28T22:05:09.486Z,777.87
2022-09-28T22:07:37.643Z,783.87
2022-09-28T22:10:06.705Z,778.93
2022-09-28T22:12:35.247Z,773.17
2022-09-28T22:15:03.601Z,779.73
2022-09-28T22:17:31.928Z,772.93
2022-09-28T22:20:00.068Z,775.80
2022-09-28T22:22:29.694Z,777.00
2022-09-28T22:24:58.149Z,776.73
2022-09-28T22:27:26.460Z,777.73
2022-09-28T22:29:54.669Z,774.53
2022-09-28T22:32:23.959Z,778.60
2022-09-28T22:34:52.601Z,777.00
2022-09-28T22:37:22.025Z,778.10
2022-09-28T22:39:55.190Z,778.07
2022-09-28T22:42:26.625Z,778.20
2022-09-28T22:45:18.641Z,780.60
2022-09-28T22:47:46.870Z,778.70
2022-09-28T22:50:14.908Z,777.20
2022-09-28T22:52:43.010Z,774.57
2022-09-28T22:55:12.969Z,782.83
2022-09-28T22:57:41.053Z,777.50
2022-09-28T23:00:10.212Z,773.50
2022-09-28T23:02:38.412Z,779.47
2022-09-28T23:05:07.818Z,773.13
2022-09-28T23:07:36.196Z,768.07
2022-09-28T23:10:04.508Z,768.70
2022-09-28T23:12:35.783Z,755.83
2022-09-28T23:15:13.771Z,764.80
2022-09-28T23:17:46.230Z,763.30
2022-09-28T23:20:14.824Z,759.33
2022-09-28T23:22:47.058Z,757.80
2022-09-28T23:25:15.638Z,754.53
2022-09-28T23:27:47.539Z,750.17
2022-09-28T23:30:16.053Z,748.43
2022-09-28T23:32:44.170Z,756.47
2022-09-28T23:35:12.956Z,744.20
2022-09-28T23:37:41.286Z,747.33
2022-09-28T23:40:09.886Z,750.93
2022-09-28T23:42:38.112Z,751.27
2022-09-28T23:45:08.790Z,753.07
2022-09-28T23:47:38.818Z,752.43
2022-09-28T23:50:07.710Z,745.60
2022-09-28T23:52:36.804Z,747.50
2022-09-28T23:55:05.450Z,745.87
2022-09-28T23:57:33.470Z,747.77
